sensor_id;sensor_type;location;lat;lon;timestamp;P1;durP1;ratioP1;P2;durP2;ratioP2
51515;SDS011;37603;55.614;37.326;2023-10-08T00:05:55;1.2;;;0.2;;
51515;SDS011;37603;55.614;37.326;2023-10-08T00:11:54;0.8;;;0.2;;
51515;SDS011;37603;55.614;37.326;2023-10-08T00:17:53;2.0;;;0.2;;
51515;SDS011;37603;55.614;37.326;2023-10-08T00:23:52;0.6;;;0.2;;
51515;SDS011;37603;55.614;37.326;2023-10-08T00:29:51;1.0;;;0.2;;
51515;SDS011;37603;55.614;37.326;2023-10-08T00:35:50;1.1;;;0.3;;
51515;SDS011;37603;55.614;37.326;2023-10-08T00:41:50;0.9;;;0.2;;
51515;SDS011;37603;55.614;37.326;2023-10-08T00:47:48;2.5;;;0.4;;
51515;SDS011;37603;55.614;37.326;2023-10-08T00:53:47;0.2;;;0.1;;
51515;SDS011;37603;55.614;37.326;2023-10-08T00:59:46;1.2;;;0.3;;
51515;SDS011;37603;55.614;37.326;2023-10-08T01:05:45;0.5;;;0.1;;
51515;SDS011;37603;55.614;37.326;2023-10-08T01:17:43;1.5;;;0.2;;
51515;SDS011;37603;55.614;37.326;2023-10-08T01:23:42;2.5;;;0.3;;
51515;SDS011;37603;55.614;37.326;2023-10-08T01:29:41;1.1;;;0.2;;
51515;SDS011;37603;55.614;37.326;2023-10-08T01:35:40;0.5;;;0.2;;
51515;SDS011;37603;55.614;37.326;2023-10-08T01:41:39;1.6;;;0.3;;
51515;SDS011;37603;55.614;37.326;2023-10-08T01:47:38;0.7;;;0.2;;
51515;SDS011;37603;55.614;37.326;2023-10-08T01:53:37;2.2;;;0.3;;
51515;SDS011;37603;55.614;37.326;2023-10-08T01:59:36;0.9;;;0.2;;
51515;SDS011;37603;55.614;37.326;2023-10-08T02:05:35;0.5;;;0.2;;
51515;SDS011;37603;55.614;37.326;2023-10-08T02:11:42;1.4;;;0.4;;
51515;SDS011;37603;55.614;37.326;2023-10-08T02:17:33;1.8;;;0.4;;
51515;SDS011;37603;55.614;37.326;2023-10-08T02:23:32;1.9;;;0.4;;
51515;SDS011;37603;55.614;37.326;2023-10-08T02:29:31;0.9;;;0.3;;
51515;SDS011;37603;55.614;37.326;2023-10-08T02:35:29;1.2;;;0.3;;
51515;SDS011;37603;55.614;37.326;2023-10-08T02:41:28;1.3;;;0.3;;
51515;SDS011;37603;55.614;37.326;2023-10-08T02:47:27;1.6;;;0.5;;
51515;SDS011;37603;55.614;37.326;2023-10-08T02:53:26;1.3;;;0.4;;
51515;SDS011;37603;55.614;37.326;2023-10-08T02:59:28;3.6;;;0.4;;
51515;SDS011;37603;55.614;37.326;2023-10-08T03:05:24;1.1;;;0.4;;
51515;SDS011;37603;55.614;37.326;2023-10-08T03:17:22;1.2;;;0.6;;
51515;SDS011;37603;55.614;37.326;2023-10-08T03:23:21;0.8;;;0.4;;
51515;SDS011;37603;55.614;37.326;2023-10-08T03:29:20;1.1;;;0.4;;
51515;SDS011;37603;55.614;37.326;2023-10-08T03:35:19;1.9;;;0.5;;
51515;SDS011;37603;55.614;37.326;2023-10-08T03:41:18;1.2;;;0.4;;
51515;SDS011;37603;55.614;37.326;2023-10-08T03:47:17;2.3;;;0.5;;
51515;SDS011;37603;55.614;37.326;2023-10-08T03:53:16;0.9;;;0.5;;
51515;SDS011;37603;55.614;37.326;2023-10-08T03:59:15;1.8;;;0.5;;
51515;SDS011;37603;55.614;37.326;2023-10-08T04:05:14;1.3;;;0.4;;
51515;SDS011;37603;55.614;37.326;2023-10-08T04:11:12;1.0;;;0.4;;
51515;SDS011;37603;55.614;37.326;2023-10-08T04:17:11;2.2;;;0.5;;
51515;SDS011;37603;55.614;37.326;2023-10-08T04:29:09;1.9;;;0.7;;
51515;SDS011;37603;55.614;37.326;2023-10-08T04:35:08;0.7;;;0.4;;
51515;SDS011;37603;55.614;37.326;2023-10-08T04:41:07;3.1;;;0.6;;
51515;SDS011;37603;55.614;37.326;2023-10-08T04:47:06;2.1;;;0.6;;
51515;SDS011;37603;55.614;37.326;2023-10-08T04:53:05;1.1;;;0.4;;
51515;SDS011;37603;55.614;37.326;2023-10-08T04:59:04;1.5;;;0.4;;
51515;SDS011;37603;55.614;37.326;2023-10-08T05:05:03;1.3;;;0.4;;
51515;SDS011;37603;55.614;37.326;2023-10-08T05:11:02;1.9;;;0.4;;
51515;SDS011;37603;55.614;37.326;2023-10-08T05:17:02;2.4;;;0.5;;
51515;SDS011;37603;55.614;37.326;2023-10-08T05:23:00;1.8;;;0.6;;
51515;SDS011;37603;55.614;37.326;2023-10-08T05:28:59;1.3;;;0.5;;
51515;SDS011;37603;55.614;37.326;2023-10-08T05:34:58;2.3;;;0.6;;
51515;SDS011;37603;55.614;37.326;2023-10-08T05:40:57;1.2;;;0.5;;
51515;SDS011;37603;55.614;37.326;2023-10-08T05:46:56;1.7;;;0.5;;
51515;SDS011;37603;55.614;37.326;2023-10-08T05:52:55;1.8;;;0.5;;
51515;SDS011;37603;55.614;37.326;2023-10-08T05:58:54;2.8;;;0.5;;
51515;SDS011;37603;55.614;37.326;2023-10-08T06:04:53;1.7;;;0.5;;
51515;SDS011;37603;55.614;37.326;2023-10-08T06:10:52;2.3;;;0.4;;
51515;SDS011;37603;55.614;37.326;2023-10-08T06:16:52;1.4;;;0.4;;
51515;SDS011;37603;55.614;37.326;2023-10-08T06:22:50;1.6;;;0.4;;
51515;SDS011;37603;55.614;37.326;2023-10-08T06:28:49;0.6;;;0.4;;
51515;SDS011;37603;55.614;37.326;2023-10-08T06:34:47;2.3;;;0.4;;
51515;SDS011;37603;55.614;37.326;2023-10-08T06:40:46;2.8;;;0.6;;
51515;SDS011;37603;55.614;37.326;2023-10-08T06:46:45;1.5;;;0.5;;
51515;SDS011;37603;55.614;37.326;2023-10-08T06:52:44;1.7;;;0.6;;
51515;SDS011;37603;55.614;37.326;2023-10-08T06:58:43;2.0;;;0.5;;
51515;SDS011;37603;55.614;37.326;2023-10-08T07:10:41;1.8;;;0.5;;
51515;SDS011;37603;55.614;37.326;2023-10-08T07:16:40;1.7;;;0.5;;
51515;SDS011;37603;55.614;37.326;2023-10-08T07:22:39;0.9;;;0.4;;
51515;SDS011;37603;55.614;37.326;2023-10-08T07:28:38;1.0;;;0.6;;
51515;SDS011;37603;55.614;37.326;2023-10-08T07:34:37;2.8;;;0.7;;
51515;SDS011;37603;55.614;37.326;2023-10-08T07:40:36;0.8;;;0.5;;
51515;SDS011;37603;55.614;37.326;2023-10-08T07:46:35;2.5;;;0.5;;
51515;SDS011;37603;55.614;37.326;2023-10-08T07:52:34;2.2;;;0.5;;
51515;SDS011;37603;55.614;37.326;2023-10-08T07:58:33;1.4;;;0.7;;
51515;SDS011;37603;55.614;37.326;2023-10-08T08:04:32;4.0;;;0.6;;
51515;SDS011;37603;55.614;37.326;2023-10-08T08:10:31;1.4;;;0.6;;
51515;SDS011;37603;55.614;37.326;2023-10-08T08:16:30;1.3;;;0.6;;
51515;SDS011;37603;55.614;37.326;2023-10-08T08:22:29;2.9;;;0.8;;
51515;SDS011;37603;55.614;37.326;2023-10-08T08:28:28;2.6;;;0.7;;
51515;SDS011;37603;55.614;37.326;2023-10-08T08:34:27;3.8;;;0.6;;
51515;SDS011;37603;55.614;37.326;2023-10-08T08:40:26;1.0;;;0.8;;
51515;SDS011;37603;55.614;37.326;2023-10-08T08:46:27;3.0;;;0.8;;
51515;SDS011;37603;55.614;37.326;2023-10-08T08:52:24;1.6;;;0.5;;
51515;SDS011;37603;55.614;37.326;2023-10-08T08:58:23;2.4;;;0.7;;
51515;SDS011;37603;55.614;37.326;2023-10-08T09:04:27;1.7;;;0.5;;
51515;SDS011;37603;55.614;37.326;2023-10-08T09:10:21;3.1;;;0.9;;
51515;SDS011;37603;55.614;37.326;2023-10-08T09:16:20;0.9;;;0.5;;
51515;SDS011;37603;55.614;37.326;2023-10-08T09:22:19;1.7;;;0.5;;
51515;SDS011;37603;55.614;37.326;2023-10-08T09:28:18;2.5;;;0.7;;
51515;SDS011;37603;55.614;37.326;2023-10-08T09:34:17;1.0;;;0.5;;
51515;SDS011;37603;55.614;37.326;2023-10-08T09:40:16;1.8;;;0.5;;
51515;SDS011;37603;55.614;37.326;2023-10-08T09:46:16;1.7;;;0.7;;
51515;SDS011;37603;55.614;37.326;2023-10-08T09:52:15;2.6;;;0.8;;
51515;SDS011;37603;55.614;37.326;2023-10-08T09:58:13;3.2;;;1.0;;
51515;SDS011;37603;55.614;37.326;2023-10-08T10:04:12;2.4;;;0.9;;
51515;SDS011;37603;55.614;37.326;2023-10-08T10:16:10;2.2;;;0.9;;
51515;SDS011;37603;55.614;37.326;2023-10-08T10:22:10;2.4;;;0.8;;
51515;SDS011;37603;55.614;37.326;2023-10-08T10:34:07;2.0;;;0.8;;
51515;SDS011;37603;55.614;37.326;2023-10-08T10:40:06;1.3;;;0.8;;
51515;SDS011;37603;55.614;37.326;2023-10-08T10:46:04;4.0;;;0.7;;
51515;SDS011;37603;55.614;37.326;2023-10-08T10:52:04;1.8;;;1.1;;
51515;SDS011;37603;55.614;37.326;2023-10-08T10:58:02;1.9;;;0.9;;
51515;SDS011;37603;55.614;37.326;2023-10-08T11:04:02;1.8;;;1.0;;
51515;SDS011;37603;55.614;37.326;2023-10-08T11:10:01;1.6;;;0.9;;
51515;SDS011;37603;55.614;37.326;2023-10-08T11:16:02;2.8;;;1.0;;
51515;SDS011;37603;55.614;37.326;2023-10-08T11:21:58;2.9;;;0.8;;
51515;SDS011;37603;55.614;37.326;2023-10-08T11:27:57;1.6;;;0.9;;
51515;SDS011;37603;55.614;37.326;2023-10-08T11:39:55;3.7;;;1.3;;
51515;SDS011;37603;55.614;37.326;2023-10-08T11:45:53;1.5;;;0.7;;
51515;SDS011;37603;55.614;37.326;2023-10-08T11:57:52;2.0;;;0.8;;
51515;SDS011;37603;55.614;37.326;2023-10-08T12:03:50;1.1;;;0.8;;
51515;SDS011;37603;55.614;37.326;2023-10-08T12:09:49;0.9;;;0.7;;
51515;SDS011;37603;55.614;37.326;2023-10-08T12:15:48;5.4;;;3.0;;
51515;SDS011;37603;55.614;37.326;2023-10-08T12:21:47;1.4;;;0.9;;
51515;SDS011;37603;55.614;37.326;2023-10-08T12:27:46;3.1;;;1.2;;
51515;SDS011;37603;55.614;37.326;2023-10-08T12:33:45;8.5;;;6.1;;
51515;SDS011;37603;55.614;37.326;2023-10-08T12:39:44;2.5;;;1.3;;
51515;SDS011;37603;55.614;37.326;2023-10-08T12:45:43;1.0;;;0.9;;
51515;SDS011;37603;55.614;37.326;2023-10-08T12:51:44;0.9;;;0.6;;
51515;SDS011;37603;55.614;37.326;2023-10-08T12:57:41;1.1;;;0.5;;
51515;SDS011;37603;55.614;37.326;2023-10-08T13:03:39;0.7;;;0.5;;
51515;SDS011;37603;55.614;37.326;2023-10-08T13:09:39;1.6;;;1.0;;
51515;SDS011;37603;55.614;37.326;2023-10-08T13:15:37;10.2;;;8.0;;
51515;SDS011;37603;55.614;37.326;2023-10-08T13:21:37;1.7;;;0.9;;
51515;SDS011;37603;55.614;37.326;2023-10-08T13:27:35;1.2;;;0.7;;
51515;SDS011;37603;55.614;37.326;2023-10-08T13:33:34;1.1;;;0.6;;
51515;SDS011;37603;55.614;37.326;2023-10-08T13:39:33;1.4;;;0.6;;
51515;SDS011;37603;55.614;37.326;2023-10-08T13:45:33;0.7;;;0.4;;
51515;SDS011;37603;55.614;37.326;2023-10-08T13:51:30;0.4;;;0.4;;
51515;SDS011;37603;55.614;37.326;2023-10-08T13:57:32;5.7;;;3.9;;
51515;SDS011;37603;55.614;37.326;2023-10-08T14:03:28;1.8;;;0.9;;
51515;SDS011;37603;55.614;37.326;2023-10-08T14:09:27;0.6;;;0.5;;
51515;SDS011;37603;55.614;37.326;2023-10-08T14:21:26;41.4;;;37.0;;
51515;SDS011;37603;55.614;37.326;2023-10-08T14:27:24;11.7;;;10.0;;
51515;SDS011;37603;55.614;37.326;2023-10-08T14:33:22;2.6;;;1.7;;
51515;SDS011;37603;55.614;37.326;2023-10-08T14:39:21;6.2;;;4.7;;
51515;SDS011;37603;55.614;37.326;2023-10-08T14:45:21;6.0;;;4.4;;
51515;SDS011;37603;55.614;37.326;2023-10-08T14:51:19;409.2;;;360.0;;
51515;SDS011;37603;55.614;37.326;2023-10-08T14:57:19;337.6;;;280.2;;
51515;SDS011;37603;55.614;37.326;2023-10-08T15:03:17;147.8;;;119.2;;
51515;SDS011;37603;55.614;37.326;2023-10-08T15:09:16;23.4;;;19.2;;
51515;SDS011;37603;55.614;37.326;2023-10-08T15:15:15;5.5;;;4.4;;
51515;SDS011;37603;55.614;37.326;2023-10-08T15:21:14;3.8;;;3.1;;
51515;SDS011;37603;55.614;37.326;2023-10-08T15:27:12;0.8;;;0.6;;
51515;SDS011;37603;55.614;37.326;2023-10-08T15:33:11;1.1;;;0.8;;
51515;SDS011;37603;55.614;37.326;2023-10-08T15:39:12;1.0;;;0.7;;
51515;SDS011;37603;55.614;37.326;2023-10-08T15:45:11;0.9;;;0.8;;
51515;SDS011;37603;55.614;37.326;2023-10-08T15:51:10;1.7;;;0.8;;
51515;SDS011;37603;55.614;37.326;2023-10-08T15:57:10;1.4;;;1.3;;
51515;SDS011;37603;55.614;37.326;2023-10-08T16:03:06;1.2;;;1.1;;
51515;SDS011;37603;55.614;37.326;2023-10-08T16:09:04;3.8;;;2.9;;
51515;SDS011;37603;55.614;37.326;2023-10-08T16:15:03;2.3;;;1.5;;
51515;SDS011;37603;55.614;37.326;2023-10-08T16:21:01;2.0;;;1.1;;
51515;SDS011;37603;55.614;37.326;2023-10-08T16:27:00;1.7;;;1.0;;
51515;SDS011;37603;55.614;37.326;2023-10-08T16:32:59;0.9;;;0.4;;
51515;SDS011;37603;55.614;37.326;2023-10-08T16:38:59;0.5;;;0.4;;
51515;SDS011;37603;55.614;37.326;2023-10-08T16:50:55;1.0;;;0.5;;
51515;SDS011;37603;55.614;37.326;2023-10-08T16:56:54;0.4;;;0.4;;
51515;SDS011;37603;55.614;37.326;2023-10-08T17:08:52;0.6;;;0.4;;
51515;SDS011;37603;55.614;37.326;2023-10-08T17:14:51;0.7;;;0.5;;
51515;SDS011;37603;55.614;37.326;2023-10-08T17:20:49;0.6;;;0.4;;
51515;SDS011;37603;55.614;37.326;2023-10-08T17:26:50;0.5;;;0.4;;
51515;SDS011;37603;55.614;37.326;2023-10-08T17:32:47;0.6;;;0.3;;
51515;SDS011;37603;55.614;37.326;2023-10-08T17:38:47;0.5;;;0.4;;
51515;SDS011;37603;55.614;37.326;2023-10-08T17:44:44;0.8;;;0.4;;
51515;SDS011;37603;55.614;37.326;2023-10-08T17:50:45;0.3;;;0.3;;
51515;SDS011;37603;55.614;37.326;2023-10-08T18:02:41;0.7;;;0.5;;
51515;SDS011;37603;55.614;37.326;2023-10-08T18:08:40;0.4;;;0.4;;
51515;SDS011;37603;55.614;37.326;2023-10-08T18:14:38;0.7;;;0.6;;
51515;SDS011;37603;55.614;37.326;2023-10-08T18:20:37;0.8;;;0.6;;
51515;SDS011;37603;55.614;37.326;2023-10-08T18:26:36;2.0;;;1.4;;
51515;SDS011;37603;55.614;37.326;2023-10-08T18:32:35;1.0;;;0.6;;
51515;SDS011;37603;55.614;37.326;2023-10-08T18:38:33;0.9;;;0.6;;
51515;SDS011;37603;55.614;37.326;2023-10-08T18:44:32;1.1;;;0.5;;
51515;SDS011;37603;55.614;37.326;2023-10-08T18:50:31;1.2;;;0.5;;
51515;SDS011;37603;55.614;37.326;2023-10-08T18:56:30;0.9;;;0.5;;
51515;SDS011;37603;55.614;37.326;2023-10-08T19:02:29;0.7;;;0.6;;
51515;SDS011;37603;55.614;37.326;2023-10-08T19:08:27;0.9;;;0.5;;
51515;SDS011;37603;55.614;37.326;2023-10-08T19:14:26;0.5;;;0.4;;
51515;SDS011;37603;55.614;37.326;2023-10-08T19:20:24;1.1;;;0.5;;
51515;SDS011;37603;55.614;37.326;2023-10-08T19:32:22;1.2;;;0.5;;
51515;SDS011;37603;55.614;37.326;2023-10-08T19:38:21;0.6;;;0.4;;
51515;SDS011;37603;55.614;37.326;2023-10-08T19:44:20;0.5;;;0.4;;
51515;SDS011;37603;55.614;37.326;2023-10-08T19:56:17;0.6;;;0.3;;
51515;SDS011;37603;55.614;37.326;2023-10-08T20:02:16;0.9;;;0.7;;
51515;SDS011;37603;55.614;37.326;2023-10-08T20:08:15;0.4;;;0.3;;
51515;SDS011;37603;55.614;37.326;2023-10-08T20:14:13;0.5;;;0.3;;
51515;SDS011;37603;55.614;37.326;2023-10-08T20:20:12;0.3;;;0.3;;
51515;SDS011;37603;55.614;37.326;2023-10-08T20:26:11;0.6;;;0.3;;
51515;SDS011;37603;55.614;37.326;2023-10-08T20:32:10;0.2;;;0.2;;
51515;SDS011;37603;55.614;37.326;2023-10-08T20:38:08;0.4;;;0.3;;
51515;SDS011;37603;55.614;37.326;2023-10-08T20:44:07;0.3;;;0.3;;
51515;SDS011;37603;55.614;37.326;2023-10-08T20:50:06;0.2;;;0.2;;
51515;SDS011;37603;55.614;37.326;2023-10-08T20:56:05;0.3;;;0.2;;
51515;SDS011;37603;55.614;37.326;2023-10-08T21:02:03;0.5;;;0.3;;
51515;SDS011;37603;55.614;37.326;2023-10-08T21:08:02;0.4;;;0.3;;
51515;SDS011;37603;55.614;37.326;2023-10-08T21:14:01;0.3;;;0.2;;
51515;SDS011;37603;55.614;37.326;2023-10-08T21:20:00;0.2;;;0.2;;
51515;SDS011;37603;55.614;37.326;2023-10-08T21:25:59;0.4;;;0.2;;
51515;SDS011;37603;55.614;37.326;2023-10-08T21:31:57;0.3;;;0.2;;
51515;SDS011;37603;55.614;37.326;2023-10-08T21:37:56;0.2;;;0.2;;
51515;SDS011;37603;55.614;37.326;2023-10-08T21:55:52;0.4;;;0.1;;
51515;SDS011;37603;55.614;37.326;2023-10-08T22:01:51;0.2;;;0.1;;
51515;SDS011;37603;55.614;37.326;2023-10-08T22:07:49;0.1;;;0.1;;
51515;SDS011;37603;55.614;37.326;2023-10-08T22:19:47;0.2;;;0.1;;
51515;SDS011;37603;55.614;37.326;2023-10-08T22:25:46;0.1;;;0.1;;
51515;SDS011;37603;55.614;37.326;2023-10-08T22:37:44;0.2;;;0.1;;
51515;SDS011;37603;55.614;37.326;2023-10-08T22:43:42;0.1;;;0.1;;
51515;SDS011;37603;55.614;37.326;2023-10-08T22:49:41;0.2;;;0.2;;
51515;SDS011;37603;55.614;37.326;2023-10-08T22:55:39;0.1;;;0.1;;
51515;SDS011;37603;55.614;37.326;2023-10-08T23:07:37;0.3;;;0.1;;
51515;SDS011;37603;55.614;37.326;2023-10-08T23:13:36;0.2;;;0.2;;
51515;SDS011;37603;55.614;37.326;2023-10-08T23:25:34;0.4;;;0.3;;
51515;SDS011;37603;55.614;37.326;2023-10-08T23:31:32;0.2;;;0.2;;
51515;SDS011;37603;55.614;37.326;2023-10-08T23:37:30;0.3;;;0.2;;
51515;SDS011;37603;55.614;37.326;2023-10-08T23:49:28;0.5;;;0.2;;
51515;SDS011;37603;55.614;37.326;2023-10-08T23:55:27;0.7;;;0.2;;
